sensor_id;sensor_type;location;lat;lon;timestamp;P1;durP1;ratioP1;P2;durP2;ratioP2
17947;SDS011;9099;47.958;11.366;2022-10-12T00:01:46;31.48;;;20.33;;
17947;SDS011;9099;47.958;11.366;2022-10-12T00:04:13;23.85;;;18.25;;
17947;SDS011;9099;47.958;11.366;2022-10-12T00:06:40;31.45;;;21.08;;
17947;SDS011;9099;47.958;11.366;2022-10-12T00:09:06;28.02;;;21.00;;
17947;SDS011;9099;47.958;11.366;2022-10-12T00:11:33;31.83;;;21.13;;
17947;SDS011;9099;47.958;11.366;2022-10-12T00:14:00;24.23;;;19.73;;
17947;SDS011;9099;47.958;11.366;2022-10-12T00:16:27;31.13;;;21.15;;
17947;SDS011;9099;47.958;11.366;2022-10-12T00:18:57;27.77;;;20.15;;
17947;SDS011;9099;47.958;11.366;2022-10-12T00:21:24;30.83;;;22.25;;
17947;SDS011;9099;47.958;11.366;2022-10-12T00:23:54;27.25;;;19.55;;
17947;SDS011;9099;47.958;11.366;2022-10-12T00:26:22;25.30;;;18.70;;
17947;SDS011;9099;47.958;11.366;2022-10-12T00:28:53;24.10;;;18.65;;
17947;SDS011;9099;47.958;11.366;2022-10-12T00:31:22;23.17;;;17.67;;
17947;SDS011;9099;47.958;11.366;2022-10-12T00:33:49;23.65;;;17.55;;
17947;SDS011;9099;47.958;11.366;2022-10-12T00:36:18;24.58;;;17.08;;
17947;SDS011;9099;47.958;11.366;2022-10-12T00:38:46;20.40;;;16.98;;
17947;SDS011;9099;47.958;11.366;2022-10-12T00:41:15;27.13;;;19.75;;
17947;SDS011;9099;47.958;11.366;2022-10-12T00:43:43;22.80;;;18.42;;
17947;SDS011;9099;47.958;11.366;2022-10-12T00:46:12;18.92;;;15.60;;
17947;SDS011;9099;47.958;11.366;2022-10-12T00:48:43;21.05;;;17.48;;
17947;SDS011;9099;47.958;11.366;2022-10-12T00:51:12;21.13;;;17.50;;
17947;SDS011;9099;47.958;11.366;2022-10-12T00:53:44;23.48;;;18.02;;
17947;SDS011;9099;47.958;11.366;2022-10-12T00:56:14;22.48;;;17.00;;
17947;SDS011;9099;47.958;11.366;2022-10-12T00:58:45;20.48;;;15.95;;
17947;SDS011;9099;47.958;11.366;2022-10-12T01:01:13;26.77;;;19.55;;
17947;SDS011;9099;47.958;11.366;2022-10-12T01:03:41;24.50;;;18.25;;
17947;SDS011;9099;47.958;11.366;2022-10-12T01:06:09;32.63;;;23.35;;
17947;SDS011;9099;47.958;11.366;2022-10-12T01:08:36;26.48;;;19.83;;
17947;SDS011;9099;47.958;11.366;2022-10-12T01:11:05;24.95;;;19.50;;
17947;SDS011;9099;47.958;11.366;2022-10-12T01:13:32;26.42;;;18.15;;
17947;SDS011;9099;47.958;11.366;2022-10-12T01:16:01;30.65;;;22.08;;
17947;SDS011;9099;47.958;11.366;2022-10-12T01:18:33;28.65;;;19.85;;
17947;SDS011;9099;47.958;11.366;2022-10-12T01:21:08;23.67;;;19.33;;
17947;SDS011;9099;47.958;11.366;2022-10-12T01:24:00;23.60;;;17.83;;
17947;SDS011;9099;47.958;11.366;2022-10-12T01:29:36;26.27;;;19.30;;
17947;SDS011;9099;47.958;11.366;2022-10-12T01:32:21;26.55;;;16.48;;
17947;SDS011;9099;47.958;11.366;2022-10-12T01:34:56;23.45;;;17.02;;
17947;SDS011;9099;47.958;11.366;2022-10-12T01:37:28;28.83;;;18.50;;
17947;SDS011;9099;47.958;11.366;2022-10-12T01:40:02;31.70;;;21.33;;
17947;SDS011;9099;47.958;11.366;2022-10-12T01:42:36;24.30;;;18.58;;
17947;SDS011;9099;47.958;11.366;2022-10-12T01:45:08;23.40;;;18.30;;
17947;SDS011;9099;47.958;11.366;2022-10-12T01:47:36;26.85;;;20.40;;
17947;SDS011;9099;47.958;11.366;2022-10-12T01:50:04;27.88;;;21.00;;
17947;SDS011;9099;47.958;11.366;2022-10-12T01:52:35;21.85;;;18.05;;
17947;SDS011;9099;47.958;11.366;2022-10-12T01:55:11;30.42;;;20.42;;
17947;SDS011;9099;47.958;11.366;2022-10-12T01:57:51;24.80;;;19.38;;
17947;SDS011;9099;47.958;11.366;2022-10-12T02:00:27;24.10;;;18.63;;
17947;SDS011;9099;47.958;11.366;2022-10-12T02:03:00;31.92;;;21.50;;
17947;SDS011;9099;47.958;11.366;2022-10-12T02:05:36;23.67;;;17.75;;
17947;SDS011;9099;47.958;11.366;2022-10-12T02:08:10;22.33;;;17.17;;
17947;SDS011;9099;47.958;11.366;2022-10-12T02:10:46;26.05;;;18.20;;
17947;SDS011;9099;47.958;11.366;2022-10-12T02:13:17;31.42;;;19.90;;
17947;SDS011;9099;47.958;11.366;2022-10-12T02:15:47;31.10;;;21.35;;
17947;SDS011;9099;47.958;11.366;2022-10-12T02:18:14;24.23;;;17.90;;
17947;SDS011;9099;47.958;11.366;2022-10-12T02:20:44;30.73;;;18.85;;
17947;SDS011;9099;47.958;11.366;2022-10-12T02:23:13;26.55;;;18.75;;
17947;SDS011;9099;47.958;11.366;2022-10-12T02:25:41;26.60;;;19.83;;
17947;SDS011;9099;47.958;11.366;2022-10-12T02:28:09;28.73;;;20.15;;
17947;SDS011;9099;47.958;11.366;2022-10-12T02:30:42;22.02;;;17.60;;
17947;SDS011;9099;47.958;11.366;2022-10-12T02:33:16;22.35;;;18.02;;
17947;SDS011;9099;47.958;11.366;2022-10-12T02:35:49;24.55;;;17.80;;
17947;SDS011;9099;47.958;11.366;2022-10-12T02:38:22;25.23;;;17.17;;
17947;SDS011;9099;47.958;11.366;2022-10-12T02:40:54;29.48;;;19.38;;
17947;SDS011;9099;47.958;11.366;2022-10-12T02:43:24;23.35;;;17.02;;
17947;SDS011;9099;47.958;11.366;2022-10-12T02:45:54;21.88;;;16.38;;
17947;SDS011;9099;47.958;11.366;2022-10-12T02:48:25;26.70;;;18.45;;
17947;SDS011;9099;47.958;11.366;2022-10-12T02:50:54;25.38;;;17.63;;
17947;SDS011;9099;47.958;11.366;2022-10-12T02:53:23;24.42;;;17.63;;
17947;SDS011;9099;47.958;11.366;2022-10-12T02:55:53;21.65;;;16.45;;
17947;SDS011;9099;47.958;11.366;2022-10-12T02:58:25;24.60;;;18.10;;
17947;SDS011;9099;47.958;11.366;2022-10-12T03:00:52;21.88;;;16.98;;
17947;SDS011;9099;47.958;11.366;2022-10-12T03:03:19;23.23;;;17.90;;
17947;SDS011;9099;47.958;11.366;2022-10-12T03:05:47;25.83;;;18.02;;
17947;SDS011;9099;47.958;11.366;2022-10-12T03:08:14;23.98;;;17.35;;
17947;SDS011;9099;47.958;11.366;2022-10-12T03:10:41;26.33;;;17.67;;
17947;SDS011;9099;47.958;11.366;2022-10-12T03:13:07;23.90;;;17.42;;
17947;SDS011;9099;47.958;11.366;2022-10-12T03:15:34;23.23;;;16.73;;
17947;SDS011;9099;47.958;11.366;2022-10-12T03:18:01;31.23;;;17.73;;
17947;SDS011;9099;47.958;11.366;2022-10-12T03:20:28;22.98;;;16.45;;
17947;SDS011;9099;47.958;11.366;2022-10-12T03:22:56;22.90;;;17.00;;
17947;SDS011;9099;47.958;11.366;2022-10-12T03:25:23;23.70;;;16.35;;
17947;SDS011;9099;47.958;11.366;2022-10-12T03:27:50;24.27;;;16.92;;
17947;SDS011;9099;47.958;11.366;2022-10-12T03:30:17;23.70;;;16.83;;
17947;SDS011;9099;47.958;11.366;2022-10-12T03:32:43;25.00;;;18.25;;
17947;SDS011;9099;47.958;11.366;2022-10-12T03:35:10;25.15;;;17.25;;
17947;SDS011;9099;47.958;11.366;2022-10-12T03:37:37;26.83;;;17.85;;
17947;SDS011;9099;47.958;11.366;2022-10-12T03:40:06;21.77;;;16.88;;
17947;SDS011;9099;47.958;11.366;2022-10-12T03:42:34;22.70;;;16.52;;
17947;SDS011;9099;47.958;11.366;2022-10-12T03:45:01;19.75;;;14.60;;
17947;SDS011;9099;47.958;11.366;2022-10-12T03:47:27;18.08;;;14.82;;
17947;SDS011;9099;47.958;11.366;2022-10-12T03:49:54;19.83;;;14.48;;
17947;SDS011;9099;47.958;11.366;2022-10-12T03:52:21;21.58;;;15.40;;
17947;SDS011;9099;47.958;11.366;2022-10-12T03:54:48;19.00;;;15.13;;
17947;SDS011;9099;47.958;11.366;2022-10-12T03:57:16;22.67;;;16.08;;
17947;SDS011;9099;47.958;11.366;2022-10-12T03:59:43;21.63;;;15.25;;
17947;SDS011;9099;47.958;11.366;2022-10-12T04:02:10;18.20;;;14.88;;
17947;SDS011;9099;47.958;11.366;2022-10-12T04:04:37;19.00;;;14.70;;
17947;SDS011;9099;47.958;11.366;2022-10-12T04:07:03;19.85;;;14.65;;
17947;SDS011;9099;47.958;11.366;2022-10-12T04:09:30;15.52;;;12.98;;
17947;SDS011;9099;47.958;11.366;2022-10-12T04:11:57;19.50;;;14.15;;
17947;SDS011;9099;47.958;11.366;2022-10-12T04:14:25;22.20;;;14.25;;
17947;SDS011;9099;47.958;11.366;2022-10-12T04:16:52;21.55;;;14.73;;
17947;SDS011;9099;47.958;11.366;2022-10-12T04:19:19;22.25;;;14.63;;
17947;SDS011;9099;47.958;11.366;2022-10-12T04:21:46;19.58;;;14.57;;
17947;SDS011;9099;47.958;11.366;2022-10-12T04:24:13;18.85;;;14.23;;
17947;SDS011;9099;47.958;11.366;2022-10-12T04:26:40;20.17;;;14.75;;
17947;SDS011;9099;47.958;11.366;2022-10-12T04:29:07;19.00;;;14.10;;
17947;SDS011;9099;47.958;11.366;2022-10-12T04:31:37;17.05;;;14.70;;
17947;SDS011;9099;47.958;11.366;2022-10-12T04:34:04;16.15;;;13.45;;
17947;SDS011;9099;47.958;11.366;2022-10-12T04:36:31;16.38;;;14.40;;
17947;SDS011;9099;47.958;11.366;2022-10-12T04:38:58;18.17;;;13.98;;
17947;SDS011;9099;47.958;11.366;2022-10-12T04:41:25;19.67;;;15.10;;
17947;SDS011;9099;47.958;11.366;2022-10-12T04:43:52;20.02;;;15.32;;
17947;SDS011;9099;47.958;11.366;2022-10-12T04:46:19;19.02;;;15.25;;
17947;SDS011;9099;47.958;11.366;2022-10-12T04:48:48;20.70;;;15.73;;
17947;SDS011;9099;47.958;11.366;2022-10-12T04:51:15;21.13;;;15.35;;
17947;SDS011;9099;47.958;11.366;2022-10-12T04:53:41;19.20;;;14.18;;
17947;SDS011;9099;47.958;11.366;2022-10-12T04:56:08;20.92;;;15.45;;
17947;SDS011;9099;47.958;11.366;2022-10-12T04:58:35;20.08;;;15.05;;
17947;SDS011;9099;47.958;11.366;2022-10-12T05:01:02;21.17;;;15.27;;
17947;SDS011;9099;47.958;11.366;2022-10-12T05:03:29;19.80;;;15.15;;
17947;SDS011;9099;47.958;11.366;2022-10-12T05:05:57;21.60;;;15.02;;
17947;SDS011;9099;47.958;11.366;2022-10-12T05:08:24;19.60;;;15.40;;
17947;SDS011;9099;47.958;11.366;2022-10-12T05:10:51;19.48;;;14.80;;
17947;SDS011;9099;47.958;11.366;2022-10-12T05:13:19;19.48;;;13.75;;
17947;SDS011;9099;47.958;11.366;2022-10-12T05:15:46;19.45;;;14.15;;
17947;SDS011;9099;47.958;11.366;2022-10-12T05:18:13;17.35;;;12.95;;
17947;SDS011;9099;47.958;11.366;2022-10-12T05:20:40;22.65;;;15.25;;
17947;SDS011;9099;47.958;11.366;2022-10-12T05:23:09;19.17;;;13.85;;
17947;SDS011;9099;47.958;11.366;2022-10-12T05:25:36;26.63;;;16.45;;
17947;SDS011;9099;47.958;11.366;2022-10-12T05:28:03;21.65;;;13.98;;
17947;SDS011;9099;47.958;11.366;2022-10-12T05:30:30;25.27;;;14.93;;
17947;SDS011;9099;47.958;11.366;2022-10-12T05:32:58;22.05;;;14.13;;
17947;SDS011;9099;47.958;11.366;2022-10-12T05:35:24;23.48;;;14.25;;
17947;SDS011;9099;47.958;11.366;2022-10-12T05:37:51;23.45;;;14.88;;
17947;SDS011;9099;47.958;11.366;2022-10-12T05:40:19;23.80;;;15.65;;
17947;SDS011;9099;47.958;11.366;2022-10-12T05:42:46;26.17;;;15.35;;
17947;SDS011;9099;47.958;11.366;2022-10-12T05:45:13;21.52;;;14.63;;
17947;SDS011;9099;47.958;11.366;2022-10-12T05:47:40;25.00;;;15.27;;
17947;SDS011;9099;47.958;11.366;2022-10-12T05:50:07;22.65;;;15.05;;
17947;SDS011;9099;47.958;11.366;2022-10-12T05:52:34;21.75;;;14.85;;
17947;SDS011;9099;47.958;11.366;2022-10-12T05:55:01;19.33;;;14.27;;
17947;SDS011;9099;47.958;11.366;2022-10-12T05:57:30;22.30;;;15.18;;
17947;SDS011;9099;47.958;11.366;2022-10-12T05:59:56;17.35;;;14.27;;
17947;SDS011;9099;47.958;11.366;2022-10-12T06:02:23;19.45;;;14.48;;
17947;SDS011;9099;47.958;11.366;2022-10-12T06:04:50;20.20;;;14.90;;
17947;SDS011;9099;47.958;11.366;2022-10-12T06:07:17;20.42;;;15.52;;
17947;SDS011;9099;47.958;11.366;2022-10-12T06:09:44;23.92;;;15.20;;
17947;SDS011;9099;47.958;11.366;2022-10-12T06:12:11;23.00;;;15.57;;
17947;SDS011;9099;47.958;11.366;2022-10-12T06:14:40;22.50;;;15.57;;
17947;SDS011;9099;47.958;11.366;2022-10-12T06:17:07;21.23;;;15.70;;
17947;SDS011;9099;47.958;11.366;2022-10-12T06:19:34;22.27;;;15.95;;
17947;SDS011;9099;47.958;11.366;2022-10-12T06:22:01;19.25;;;14.93;;
17947;SDS011;9099;47.958;11.366;2022-10-12T06:24:28;20.88;;;16.35;;
17947;SDS011;9099;47.958;11.366;2022-10-12T06:26:55;24.05;;;17.23;;
17947;SDS011;9099;47.958;11.366;2022-10-12T06:29:22;19.00;;;16.00;;
17947;SDS011;9099;47.958;11.366;2022-10-12T06:31:50;21.60;;;16.10;;
17947;SDS011;9099;47.958;11.366;2022-10-12T06:34:18;18.17;;;13.85;;
17947;SDS011;9099;47.958;11.366;2022-10-12T06:36:45;19.70;;;15.10;;
17947;SDS011;9099;47.958;11.366;2022-10-12T06:39:12;25.27;;;17.48;;
17947;SDS011;9099;47.958;11.366;2022-10-12T06:41:39;21.45;;;15.10;;
17947;SDS011;9099;47.958;11.366;2022-10-12T06:44:06;20.63;;;14.68;;
17947;SDS011;9099;47.958;11.366;2022-10-12T06:46:33;18.77;;;13.27;;
17947;SDS011;9099;47.958;11.366;2022-10-12T06:49:01;16.85;;;13.90;;
17947;SDS011;9099;47.958;11.366;2022-10-12T06:51:28;20.58;;;14.25;;
17947;SDS011;9099;47.958;11.366;2022-10-12T06:53:55;19.70;;;14.32;;
17947;SDS011;9099;47.958;11.366;2022-10-12T06:56:22;20.02;;;14.30;;
17947;SDS011;9099;47.958;11.366;2022-10-12T06:58:52;19.63;;;14.45;;
17947;SDS011;9099;47.958;11.366;2022-10-12T07:01:19;22.10;;;15.00;;
17947;SDS011;9099;47.958;11.366;2022-10-12T07:03:46;22.00;;;16.33;;
17947;SDS011;9099;47.958;11.366;2022-10-12T07:06:14;27.08;;;17.63;;
17947;SDS011;9099;47.958;11.366;2022-10-12T07:08:42;26.30;;;17.80;;
17947;SDS011;9099;47.958;11.366;2022-10-12T07:11:10;28.55;;;17.17;;
17947;SDS011;9099;47.958;11.366;2022-10-12T07:13:39;22.83;;;16.15;;
17947;SDS011;9099;47.958;11.366;2022-10-12T07:16:06;26.67;;;17.92;;
17947;SDS011;9099;47.958;11.366;2022-10-12T07:18:33;25.80;;;17.15;;
17947;SDS011;9099;47.958;11.366;2022-10-12T07:21:00;24.70;;;15.63;;
17947;SDS011;9099;47.958;11.366;2022-10-12T07:23:29;21.13;;;15.85;;
17947;SDS011;9099;47.958;11.366;2022-10-12T07:25:56;22.23;;;15.70;;
17947;SDS011;9099;47.958;11.366;2022-10-12T07:28:23;21.85;;;15.13;;
17947;SDS011;9099;47.958;11.366;2022-10-12T07:30:50;22.83;;;16.20;;
17947;SDS011;9099;47.958;11.366;2022-10-12T07:33:17;23.00;;;15.75;;
17947;SDS011;9099;47.958;11.366;2022-10-12T07:35:51;25.77;;;17.70;;
17947;SDS011;9099;47.958;11.366;2022-10-12T07:38:19;24.50;;;17.92;;
17947;SDS011;9099;47.958;11.366;2022-10-12T07:40:47;23.42;;;16.52;;
17947;SDS011;9099;47.958;11.366;2022-10-12T07:43:14;22.27;;;16.55;;
17947;SDS011;9099;47.958;11.366;2022-10-12T07:45:41;21.73;;;16.17;;
17947;SDS011;9099;47.958;11.366;2022-10-12T07:48:08;23.90;;;16.73;;
17947;SDS011;9099;47.958;11.366;2022-10-12T07:50:35;21.67;;;15.60;;
17947;SDS011;9099;47.958;11.366;2022-10-12T07:53:02;21.35;;;15.52;;
17947;SDS011;9099;47.958;11.366;2022-10-12T07:55:29;20.90;;;15.82;;
17947;SDS011;9099;47.958;11.366;2022-10-12T07:57:58;20.60;;;15.02;;
17947;SDS011;9099;47.958;11.366;2022-10-12T08:00:25;21.75;;;14.75;;
17947;SDS011;9099;47.958;11.366;2022-10-12T08:02:53;21.70;;;15.32;;
17947;SDS011;9099;47.958;11.366;2022-10-12T08:05:20;20.33;;;13.90;;
17947;SDS011;9099;47.958;11.366;2022-10-12T08:07:47;21.05;;;15.00;;
17947;SDS011;9099;47.958;11.366;2022-10-12T08:10:15;19.85;;;14.25;;
17947;SDS011;9099;47.958;11.366;2022-10-12T08:12:43;18.92;;;14.57;;
17947;SDS011;9099;47.958;11.366;2022-10-12T08:15:12;16.35;;;13.20;;
17947;SDS011;9099;47.958;11.366;2022-10-12T08:17:39;18.90;;;14.18;;
17947;SDS011;9099;47.958;11.366;2022-10-12T08:20:06;17.40;;;13.32;;
17947;SDS011;9099;47.958;11.366;2022-10-12T08:22:34;16.48;;;12.80;;
17947;SDS011;9099;47.958;11.366;2022-10-12T08:25:00;16.42;;;12.27;;
17947;SDS011;9099;47.958;11.366;2022-10-12T08:27:28;17.50;;;12.88;;
17947;SDS011;9099;47.958;11.366;2022-10-12T08:29:56;15.70;;;12.07;;
17947;SDS011;9099;47.958;11.366;2022-10-12T08:32:24;18.80;;;12.77;;
17947;SDS011;9099;47.958;11.366;2022-10-12T08:34:51;14.25;;;12.60;;
17947;SDS011;9099;47.958;11.366;2022-10-12T08:37:18;14.93;;;11.50;;
17947;SDS011;9099;47.958;11.366;2022-10-12T08:39:45;14.43;;;10.18;;
17947;SDS011;9099;47.958;11.366;2022-10-12T08:42:15;12.35;;;10.02;;
17947;SDS011;9099;47.958;11.366;2022-10-12T08:45:05;15.48;;;10.35;;
17947;SDS011;9099;47.958;11.366;2022-10-12T08:47:51;14.55;;;10.07;;
17947;SDS011;9099;47.958;11.366;2022-10-12T08:50:23;11.60;;;9.07;;
17947;SDS011;9099;47.958;11.366;2022-10-12T08:52:55;15.70;;;9.63;;
17947;SDS011;9099;47.958;11.366;2022-10-12T08:55:31;13.73;;;9.18;;
17947;SDS011;9099;47.958;11.366;2022-10-12T08:58:00;11.73;;;9.50;;
17947;SDS011;9099;47.958;11.366;2022-10-12T09:00:28;11.70;;;10.48;;
17947;SDS011;9099;47.958;11.366;2022-10-12T09:03:03;12.27;;;9.68;;
17947;SDS011;9099;47.958;11.366;2022-10-12T09:05:39;15.88;;;10.60;;
17947;SDS011;9099;47.958;11.366;2022-10-12T09:08:10;13.38;;;10.18;;
17947;SDS011;9099;47.958;11.366;2022-10-12T09:10:46;11.75;;;9.07;;
17947;SDS011;9099;47.958;11.366;2022-10-12T09:13:21;13.70;;;10.80;;
17947;SDS011;9099;47.958;11.366;2022-10-12T09:16:01;12.98;;;10.80;;
17947;SDS011;9099;47.958;11.366;2022-10-12T09:18:36;16.02;;;10.35;;
17947;SDS011;9099;47.958;11.366;2022-10-12T09:21:06;12.65;;;10.80;;
17947;SDS011;9099;47.958;11.366;2022-10-12T09:23:39;12.80;;;10.30;;
17947;SDS011;9099;47.958;11.366;2022-10-12T09:26:10;13.00;;;9.75;;
17947;SDS011;9099;47.958;11.366;2022-10-12T09:28:42;12.05;;;9.07;;
17947;SDS011;9099;47.958;11.366;2022-10-12T09:31:20;10.77;;;9.57;;
17947;SDS011;9099;47.958;11.366;2022-10-12T09:34:03;17.38;;;10.35;;
17947;SDS011;9099;47.958;11.366;2022-10-12T09:36:32;11.60;;;9.35;;
17947;SDS011;9099;47.958;11.366;2022-10-12T09:39:01;11.43;;;9.52;;
17947;SDS011;9099;47.958;11.366;2022-10-12T09:41:31;12.95;;;9.88;;
17947;SDS011;9099;47.958;11.366;2022-10-12T09:44:00;14.38;;;9.43;;
17947;SDS011;9099;47.958;11.366;2022-10-12T09:46:30;15.65;;;10.35;;
17947;SDS011;9099;47.958;11.366;2022-10-12T09:49:05;11.68;;;9.07;;
17947;SDS011;9099;47.958;11.366;2022-10-12T09:51:32;12.43;;;9.23;;
17947;SDS011;9099;47.958;11.366;2022-10-12T09:54:00;15.02;;;9.90;;
17947;SDS011;9099;47.958;11.366;2022-10-12T09:56:33;11.93;;;9.02;;
17947;SDS011;9099;47.958;11.366;2022-10-12T09:59:04;13.25;;;9.45;;
17947;SDS011;9099;47.958;11.366;2022-10-12T10:01:33;10.27;;;8.65;;
17947;SDS011;9099;47.958;11.366;2022-10-12T10:04:10;11.80;;;7.90;;
17947;SDS011;9099;47.958;11.366;2022-10-12T10:06:41;12.23;;;7.55;;
17947;SDS011;9099;47.958;11.366;2022-10-12T10:12:11;8.32;;;7.45;;
17947;SDS011;9099;47.958;11.366;2022-10-12T10:14:41;11.75;;;7.47;;
17947;SDS011;9099;47.958;11.366;2022-10-12T10:17:12;10.43;;;8.05;;
17947;SDS011;9099;47.958;11.366;2022-10-12T10:19:42;10.80;;;8.27;;
17947;SDS011;9099;47.958;11.366;2022-10-12T10:22:15;11.77;;;8.27;;
17947;SDS011;9099;47.958;11.366;2022-10-12T10:24:42;11.10;;;8.93;;
17947;SDS011;9099;47.958;11.366;2022-10-12T10:27:25;10.23;;;8.85;;
17947;SDS011;9099;47.958;11.366;2022-10-12T10:30:07;8.82;;;7.95;;
17947;SDS011;9099;47.958;11.366;2022-10-12T10:32:35;9.82;;;8.20;;
17947;SDS011;9099;47.958;11.366;2022-10-12T10:35:05;8.38;;;7.53;;
17947;SDS011;9099;47.958;11.366;2022-10-12T10:37:44;10.10;;;7.55;;
17947;SDS011;9099;47.958;11.366;2022-10-12T10:40:15;8.98;;;7.10;;
17947;SDS011;9099;47.958;11.366;2022-10-12T10:42:46;8.38;;;6.47;;
17947;SDS011;9099;47.958;11.366;2022-10-12T10:45:19;13.90;;;6.53;;
17947;SDS011;9099;47.958;11.366;2022-10-12T10:47:49;7.18;;;6.47;;
17947;SDS011;9099;47.958;11.366;2022-10-12T10:50:24;10.15;;;6.22;;
17947;SDS011;9099;47.958;11.366;2022-10-12T10:52:54;6.43;;;5.55;;
17947;SDS011;9099;47.958;11.366;2022-10-12T10:55:24;6.90;;;6.10;;
17947;SDS011;9099;47.958;11.366;2022-10-12T10:57:58;9.73;;;6.65;;
17947;SDS011;9099;47.958;11.366;2022-10-12T11:00:28;9.27;;;6.15;;
17947;SDS011;9099;47.958;11.366;2022-10-12T11:03:00;9.13;;;6.10;;
17947;SDS011;9099;47.958;11.366;2022-10-12T11:05:33;9.75;;;6.20;;
17947;SDS011;9099;47.958;11.366;2022-10-12T11:08:04;6.75;;;5.53;;
17947;SDS011;9099;47.958;11.366;2022-10-12T11:10:36;6.57;;;4.90;;
17947;SDS011;9099;47.958;11.366;2022-10-12T11:13:11;7.00;;;5.68;;
17947;SDS011;9099;47.958;11.366;2022-10-12T11:15:43;6.18;;;5.57;;
17947;SDS011;9099;47.958;11.366;2022-10-12T11:18:14;6.75;;;5.25;;
17947;SDS011;9099;47.958;11.366;2022-10-12T11:20:46;6.53;;;5.68;;
17947;SDS011;9099;47.958;11.366;2022-10-12T11:23:19;6.47;;;4.88;;
17947;SDS011;9099;47.958;11.366;2022-10-12T11:26:11;6.93;;;4.80;;
17947;SDS011;9099;47.958;11.366;2022-10-12T11:28:47;6.82;;;5.00;;
17947;SDS011;9099;47.958;11.366;2022-10-12T11:31:16;10.35;;;6.82;;
17947;SDS011;9099;47.958;11.366;2022-10-12T11:33:46;10.82;;;7.40;;
17947;SDS011;9099;47.958;11.366;2022-10-12T11:36:16;9.60;;;6.38;;
17947;SDS011;9099;47.958;11.366;2022-10-12T11:38:45;6.43;;;5.78;;
17947;SDS011;9099;47.958;11.366;2022-10-12T11:41:16;8.90;;;5.80;;
17947;SDS011;9099;47.958;11.366;2022-10-12T11:43:47;11.25;;;5.70;;
17947;SDS011;9099;47.958;11.366;2022-10-12T11:46:17;11.02;;;5.45;;
17947;SDS011;9099;47.958;11.366;2022-10-12T11:48:49;18.95;;;8.70;;
17947;SDS011;9099;47.958;11.366;2022-10-12T11:51:21;16.52;;;9.23;;
17947;SDS011;9099;47.958;11.366;2022-10-12T11:53:51;13.98;;;8.48;;
17947;SDS011;9099;47.958;11.366;2022-10-12T11:56:25;12.15;;;8.65;;
17947;SDS011;9099;47.958;11.366;2022-10-12T11:58:59;9.20;;;8.02;;
17947;SDS011;9099;47.958;11.366;2022-10-12T12:01:36;8.05;;;6.70;;
17947;SDS011;9099;47.958;11.366;2022-10-12T12:04:23;9.13;;;7.43;;
17947;SDS011;9099;47.958;11.366;2022-10-12T12:06:56;10.60;;;7.68;;
17947;SDS011;9099;47.958;11.366;2022-10-12T12:09:40;9.60;;;7.15;;
17947;SDS011;9099;47.958;11.366;2022-10-12T12:12:19;9.52;;;7.13;;
17947;SDS011;9099;47.958;11.366;2022-10-12T12:14:57;13.90;;;7.45;;
17947;SDS011;9099;47.958;11.366;2022-10-12T12:17:30;8.25;;;6.60;;
17947;SDS011;9099;47.958;11.366;2022-10-12T12:19:58;8.18;;;5.95;;
17947;SDS011;9099;47.958;11.366;2022-10-12T12:22:28;7.90;;;6.40;;
17947;SDS011;9099;47.958;11.366;2022-10-12T12:27:48;8.73;;;6.78;;
17947;SDS011;9099;47.958;11.366;2022-10-12T12:30:21;12.60;;;7.68;;
17947;SDS011;9099;47.958;11.366;2022-10-12T12:32:51;9.73;;;6.75;;
17947;SDS011;9099;47.958;11.366;2022-10-12T12:35:24;13.52;;;8.05;;
17947;SDS011;9099;47.958;11.366;2022-10-12T12:38:02;14.90;;;8.30;;
17947;SDS011;9099;47.958;11.366;2022-10-12T12:40:41;9.13;;;7.47;;
17947;SDS011;9099;47.958;11.366;2022-10-12T12:43:34;11.60;;;7.53;;
17947;SDS011;9099;47.958;11.366;2022-10-12T12:49:25;10.30;;;8.13;;
17947;SDS011;9099;47.958;11.366;2022-10-12T12:51:54;9.80;;;7.53;;
17947;SDS011;9099;47.958;11.366;2022-10-12T12:54:25;9.95;;;7.78;;
17947;SDS011;9099;47.958;11.366;2022-10-12T13:02:46;7.95;;;6.95;;
17947;SDS011;9099;47.958;11.366;2022-10-12T13:08:46;10.63;;;7.28;;
17947;SDS011;9099;47.958;11.366;2022-10-12T13:11:35;11.45;;;6.95;;
17947;SDS011;9099;47.958;11.366;2022-10-12T13:14:20;14.70;;;8.07;;
17947;SDS011;9099;47.958;11.366;2022-10-12T13:17:06;16.48;;;9.80;;
17947;SDS011;9099;47.958;11.366;2022-10-12T13:19:44;8.45;;;7.05;;
17947;SDS011;9099;47.958;11.366;2022-10-12T13:22:12;11.48;;;7.40;;
17947;SDS011;9099;47.958;11.366;2022-10-12T13:24:43;9.93;;;6.22;;
17947;SDS011;9099;47.958;11.366;2022-10-12T13:27:16;9.60;;;6.85;;
17947;SDS011;9099;47.958;11.366;2022-10-12T13:29:47;8.60;;;6.68;;
17947;SDS011;9099;47.958;11.366;2022-10-12T13:32:29;9.48;;;6.78;;
17947;SDS011;9099;47.958;11.366;2022-10-12T13:35:02;12.40;;;7.50;;
17947;SDS011;9099;47.958;11.366;2022-10-12T13:37:34;9.32;;;8.10;;
17947;SDS011;9099;47.958;11.366;2022-10-12T13:40:01;9.02;;;6.32;;
17947;SDS011;9099;47.958;11.366;2022-10-12T13:42:31;9.63;;;6.45;;
17947;SDS011;9099;47.958;11.366;2022-10-12T13:45:00;8.57;;;6.30;;
17947;SDS011;9099;47.958;11.366;2022-10-12T13:47:31;8.38;;;6.60;;
17947;SDS011;9099;47.958;11.366;2022-10-12T13:49:58;8.48;;;6.00;;
17947;SDS011;9099;47.958;11.366;2022-10-12T13:52:26;8.00;;;5.63;;
17947;SDS011;9099;47.958;11.366;2022-10-12T13:54:54;7.50;;;6.03;;
17947;SDS011;9099;47.958;11.366;2022-10-12T13:57:22;8.60;;;5.80;;
17947;SDS011;9099;47.958;11.366;2022-10-12T13:59:57;7.50;;;5.95;;
17947;SDS011;9099;47.958;11.366;2022-10-12T14:02:27;8.18;;;6.10;;
17947;SDS011;9099;47.958;11.366;2022-10-12T14:04:56;7.90;;;6.72;;
17947;SDS011;9099;47.958;11.366;2022-10-12T14:07:25;7.50;;;6.60;;
17947;SDS011;9099;47.958;11.366;2022-10-12T14:09:56;10.38;;;6.13;;
17947;SDS011;9099;47.958;11.366;2022-10-12T14:12:24;8.43;;;6.53;;
17947;SDS011;9099;47.958;11.366;2022-10-12T14:14:54;8.35;;;6.55;;
17947;SDS011;9099;47.958;11.366;2022-10-12T14:17:23;10.90;;;6.25;;
17947;SDS011;9099;47.958;11.366;2022-10-12T14:19:51;10.40;;;6.88;;
17947;SDS011;9099;47.958;11.366;2022-10-12T14:22:19;7.50;;;6.70;;
17947;SDS011;9099;47.958;11.366;2022-10-12T14:24:49;9.60;;;6.93;;
17947;SDS011;9099;47.958;11.366;2022-10-12T14:27:21;10.13;;;6.88;;
17947;SDS011;9099;47.958;11.366;2022-10-12T14:29:52;9.35;;;7.32;;
17947;SDS011;9099;47.958;11.366;2022-10-12T14:32:35;11.13;;;7.55;;
17947;SDS011;9099;47.958;11.366;2022-10-12T14:35:13;11.15;;;7.97;;
17947;SDS011;9099;47.958;11.366;2022-10-12T14:37:46;13.07;;;8.27;;
17947;SDS011;9099;47.958;11.366;2022-10-12T14:40:25;9.77;;;8.10;;
17947;SDS011;9099;47.958;11.366;2022-10-12T14:42:58;8.95;;;7.80;;
17947;SDS011;9099;47.958;11.366;2022-10-12T14:45:27;13.93;;;8.63;;
17947;SDS011;9099;47.958;11.366;2022-10-12T14:47:56;8.55;;;7.72;;
17947;SDS011;9099;47.958;11.366;2022-10-12T14:50:24;10.60;;;7.80;;
17947;SDS011;9099;47.958;11.366;2022-10-12T14:52:52;10.40;;;7.57;;
17947;SDS011;9099;47.958;11.366;2022-10-12T14:55:22;9.95;;;7.70;;
17947;SDS011;9099;47.958;11.366;2022-10-12T14:57:50;10.50;;;7.78;;
17947;SDS011;9099;47.958;11.366;2022-10-12T15:00:18;11.95;;;7.88;;
17947;SDS011;9099;47.958;11.366;2022-10-12T15:02:46;8.73;;;6.90;;
17947;SDS011;9099;47.958;11.366;2022-10-12T15:05:16;10.52;;;7.70;;
17947;SDS011;9099;47.958;11.366;2022-10-12T15:07:45;10.10;;;7.10;;